Time;durP1;ratioP1;P1;durP2;ratioP2;P2;SDS_P1;SDS_P2;PMS_P1;PMS_P2;Temp;Humidity;BMP_temperature;BMP_pressure;BME280_temperature;BME280_humidity;BME280_pressure;Samples;Min_cycle;Max_cycle;Signal;HPM_P1;HPM_P2
2021/03/08 00:01:05;;;;;;;36.55;20.35;;;4.90;90.60;;;;;;6215881;23;20019;-88
2021/03/08 00:03:30;;;;;;;33.65;18.95;;;4.90;90.60;;;;;;6215045;23;20030;-87
2021/03/08 00:05:56;;;;;;;40.95;20.08;;;4.90;90.60;;;;;;6214512;23;20044;-87
2021/03/08 00:08:22;;;;;;;40.65;20.63;;;4.90;90.70;;;;;;6215146;23;20016;-86
2021/03/08 00:11:10;;;;;;;37.42;20.35;;;4.90;90.60;;;;;;6215591;23;20021;-86
2021/03/08 00:13:38;;;;;;;38.53;19.15;;;4.90;90.70;;;;;;6186320;23;20433;-87
2021/03/08 00:16:13;;;;;;;35.42;19.60;;;4.90;90.70;;;;;;6215717;23;20094;-87
2021/03/08 00:18:39;;;;;;;34.08;18.90;;;4.90;90.70;;;;;;6214822;23;20096;-87
2021/03/08 00:21:46;;;;;;;30.05;18.30;;;5.00;90.70;;;;;;6215657;23;20040;-87
2021/03/08 00:24:30;;;;;;;27.08;17.45;;;4.90;90.60;;;;;;6197360;23;20016;-88
2021/03/08 00:27:05;;;;;;;39.85;21.42;;;4.90;90.60;;;;;;6214529;23;20043;-87
2021/03/08 00:29:31;;;;;;;35.70;17.55;;;5.00;90.70;;;;;;6215186;23;20017;-87
2021/03/08 00:32:00;;;;;;;37.63;20.23;;;4.90;90.70;;;;;;6215395;23;20051;-88
2021/03/08 00:34:41;;;;;;;37.20;21.00;;;5.00;90.70;;;;;;6214545;23;20023;-87
2021/03/08 00:37:14;;;;;;;31.98;17.95;;;4.90;90.80;;;;;;6215581;23;20095;-88
2021/03/08 00:39:41;;;;;;;36.25;20.05;;;4.90;90.70;;;;;;6214380;23;20024;-87
2021/03/08 00:42:07;;;;;;;31.55;18.08;;;5.00;90.70;;;;;;6215308;23;20039;-87
2021/03/08 00:44:35;;;;;;;39.63;20.65;;;4.90;90.80;;;;;;6214709;23;20021;-87
2021/03/08 00:47:06;;;;;;;27.33;16.90;;;5.00;90.80;;;;;;6214730;23;20062;-87
2021/03/08 00:49:32;;;;;;;39.30;20.70;;;5.00;90.80;;;;;;6215082;23;20027;-87
2021/03/08 00:52:29;;;;;;;25.77;17.08;;;5.00;90.80;;;;;;6215240;23;20013;-87
2021/03/08 00:54:55;;;;;;;31.60;18.45;;;5.00;90.80;;;;;;6178437;23;20035;-87
2021/03/08 00:57:33;;;;;;;26.15;15.82;;;4.90;90.80;;;;;;6215137;23;20453;-87
2021/03/08 01:00:08;;;;;;;28.48;17.20;;;4.90;90.80;;;;;;6215142;23;20021;-85
2021/03/08 01:02:37;;;;;;;24.17;15.63;;;4.90;90.90;;;;;;6214379;23;20047;-86
2021/03/08 01:05:14;;;;;;;24.65;16.42;;;5.00;90.90;;;;;;6214712;23;20449;-87
2021/03/08 01:08:00;;;;;;;28.48;15.38;;;4.90;90.90;;;;;;6202624;23;20024;-87
2021/03/08 01:10:32;;;;;;;23.73;15.63;;;4.90;91.00;;;;;;6216873;23;20092;-87
2021/03/08 01:13:10;;;;;;;23.00;13.98;;;5.00;91.00;;;;;;6216577;23;20479;-87
2021/03/08 01:15:36;;;;;;;22.30;13.77;;;5.00;90.90;;;;;;6216238;23;20509;-87
2021/03/08 01:18:13;;;;;;;23.55;14.35;;;5.00;90.90;;;;;;6217302;23;20040;-87
2021/03/08 01:20:39;;;;;;;21.35;13.77;;;5.00;91.10;;;;;;6217521;23;20021;-87
2021/03/08 01:23:07;;;;;;;20.13;13.10;;;5.00;91.00;;;;;;6216848;23;20012;-88
2021/03/08 01:25:45;;;;;;;20.83;12.82;;;5.00;91.00;;;;;;6217538;23;20087;-88
2021/03/08 01:28:10;;;;;;;20.55;12.13;;;5.00;91.00;;;;;;6216932;23;20050;-87
2021/03/08 01:30:46;;;;;;;19.35;12.85;;;5.00;91.00;;;;;;6216663;23;20449;-87
2021/03/08 01:33:11;;;;;;;20.27;12.02;;;5.00;91.00;;;;;;6216754;23;20020;-86
2021/03/08 01:35:39;;;;;;;16.55;10.48;;;5.00;91.00;;;;;;6216323;23;20019;-87
2021/03/08 01:38:11;;;;;;;17.80;11.48;;;5.00;91.00;;;;;;6216894;23;20070;-88
2021/03/08 01:40:57;;;;;;;18.98;11.20;;;5.00;91.00;;;;;;6217295;23;20079;-87
2021/03/08 01:43:24;;;;;;;16.38;8.60;;;5.00;90.90;;;;;;6215945;23;20023;-87
2021/03/08 01:45:50;;;;;;;16.33;10.63;;;5.00;91.00;;;;;;6216934;23;20024;-87
2021/03/08 01:48:31;;;;;;;18.40;10.65;;;5.00;91.00;;;;;;6216740;23;20019;-87
2021/03/08 01:50:57;;;;;;;17.10;10.50;;;5.00;91.10;;;;;;6216237;23;20017;-87
2021/03/08 01:53:29;;;;;;;17.17;9.82;;;5.00;91.00;;;;;;6216361;23;20070;-87
2021/03/08 01:56:05;;;;;;;15.57;9.32;;;5.00;91.10;;;;;;6217124;23;20017;-87
2021/03/08 01:58:34;;;;;;;13.18;8.70;;;5.00;91.40;;;;;;6216316;23;20019;-88
2021/03/08 02:01:03;;;;;;;15.15;9.23;;;4.90;90.90;;;;;;6216377;23;20648;-87
2021/03/08 02:03:32;;;;;;;14.15;8.93;;;4.90;91.00;;;;;;6216699;23;20083;-87
2021/03/08 02:06:04;;;;;;;15.40;7.38;;;5.00;91.00;;;;;;6217342;23;20023;-87
2021/03/08 02:08:30;;;;;;;13.77;8.38;;;4.90;90.90;;;;;;6216949;23;20024;-87
2021/03/08 02:11:05;;;;;;;17.50;8.70;;;5.00;90.90;;;;;;6216066;23;20092;-87
2021/03/08 02:14:33;;;;;;;16.85;8.30;;;4.90;90.90;;;;;;6216133;23;20465;-87
2021/03/08 02:17:33;;;;;;;14.13;7.63;;;4.90;90.90;;;;;;6190897;23;20529;-87
2021/03/08 02:20:40;;;;;;;13.95;7.80;;;4.90;91.00;;;;;;6216001;23;20044;-87
2021/03/08 02:23:46;;;;;;;15.02;6.28;;;4.90;91.00;;;;;;6216038;23;20463;-87
2021/03/08 02:34:06;;;;;;;13.63;6.22;;;4.90;90.90;;;;;;6215221;23;20019;-87
2021/03/08 02:36:36;;;;;;;13.77;6.82;;;4.90;90.90;;;;;;6183213;23;20017;-88
2021/03/08 02:39:31;;;;;;;13.65;7.10;;;4.90;91.00;;;;;;6182806;23;20029;-87
2021/03/08 02:42:05;;;;;;;10.20;5.75;;;4.90;91.10;;;;;;6183780;23;20454;-87
2021/03/08 02:44:39;;;;;;;13.85;6.93;;;4.90;91.10;;;;;;6183093;23;20021;-88
2021/03/08 02:47:07;;;;;;;11.45;6.30;;;4.90;91.10;;;;;;6182820;23;20076;-87
2021/03/08 02:49:35;;;;;;;11.57;5.78;;;4.80;91.10;;;;;;6183288;23;20060;-86
2021/03/08 02:52:15;;;;;;;14.13;6.28;;;4.90;91.10;;;;;;6190923;23;20016;-87
2021/03/08 02:54:52;;;;;;;11.82;5.82;;;4.90;91.10;;;;;;6215656;23;20346;-88
2021/03/08 02:57:35;;;;;;;14.13;6.05;;;4.90;91.10;;;;;;6215601;23;20449;-88
2021/03/08 03:00:12;;;;;;;13.45;5.78;;;4.80;91.10;;;;;;6215561;23;20036;-87
2021/03/08 03:02:39;;;;;;;11.98;5.53;;;4.90;91.20;;;;;;6216012;23;20021;-87
2021/03/08 03:17:40;;;;;;;12.85;5.20;;;4.80;91.10;;;;;;6246401;23;20074;-86
2021/03/08 03:37:31;;;;;;;10.80;4.13;;;4.70;91.20;;;;;;6155571;23;20016;-88
2021/03/08 03:40:00;;;;;;;10.48;4.32;;;4.70;91.20;;;;;;6156240;23;20021;-87
2021/03/08 03:42:32;;;;;;;8.98;3.63;;;4.70;91.20;;;;;;6154925;23;20017;-87
2021/03/08 03:45:05;;;;;;;12.30;4.15;;;4.70;91.20;;;;;;6156053;23;20385;-88
2021/03/08 03:47:33;;;;;;;11.73;4.00;;;4.70;91.20;;;;;;6155570;23;20393;-88
2021/03/08 03:50:03;;;;;;;7.72;3.58;;;4.70;91.30;;;;;;6155234;23;20017;-88
2021/03/08 03:52:44;;;;;;;11.40;3.60;;;4.70;91.30;;;;;;6155980;23;20084;-88
2021/03/08 03:55:20;;;;;;;9.90;3.70;;;4.70;91.20;;;;;;6155433;23;20017;-87
2021/03/08 03:57:56;;;;;;;10.98;3.60;;;4.70;91.30;;;;;;6154678;23;20013;-86
2021/03/08 04:00:27;;;;;;;9.15;3.58;;;4.70;91.40;;;;;;6155206;23;20021;-86
2021/03/08 04:03:10;;;;;;;12.32;3.47;;;4.70;91.40;;;;;;6155670;23;20013;-86
2021/03/08 04:05:38;;;;;;;10.07;3.20;;;4.70;91.40;;;;;;6155279;23;20349;-86
2021/03/08 04:08:05;;;;;;;10.55;3.70;;;4.70;91.40;;;;;;6155484;23;20014;-86
2021/03/08 04:10:31;;;;;;;13.45;3.80;;;4.70;91.40;;;;;;6154694;23;20041;-86
2021/03/08 04:13:08;;;;;;;11.23;3.50;;;4.70;91.40;;;;;;6155681;23;20020;-86
2021/03/08 04:15:34;;;;;;;8.73;2.92;;;4.70;91.40;;;;;;6155265;23;20458;-86
2021/03/08 04:18:01;;;;;;;7.97;2.90;;;4.70;91.40;;;;;;6154451;23;20086;-86
2021/03/08 04:20:29;;;;;;;8.63;3.20;;;4.70;91.30;;;;;;6155308;23;20021;-86
2021/03/08 04:22:57;;;;;;;7.78;2.90;;;4.70;91.30;;;;;;6155804;23;20021;-87
2021/03/08 04:25:23;;;;;;;11.65;3.10;;;4.70;91.30;;;;;;6153874;23;20017;-85
2021/03/08 04:27:50;;;;;;;10.77;3.25;;;4.70;91.30;;;;;;6155892;23;20028;-86
2021/03/08 04:30:17;;;;;;;10.63;3.08;;;4.70;91.40;;;;;;6155191;23;20068;-86
2021/03/08 04:32:47;;;;;;;9.57;2.75;;;4.70;91.40;;;;;;6134783;23;20050;-86
2021/03/08 04:35:13;;;;;;;9.80;3.00;;;4.70;91.70;;;;;;6125602;23;20021;-86
2021/03/08 04:37:40;;;;;;;9.60;3.38;;;4.70;91.30;;;;;;6125565;23;20390;-87
2021/03/08 04:40:08;;;;;;;9.02;2.53;;;4.70;91.30;;;;;;6125171;23;20014;-86
2021/03/08 04:42:36;;;;;;;9.38;2.92;;;4.70;91.40;;;;;;6126734;23;20077;-86
2021/03/08 04:45:03;;;;;;;8.65;2.60;;;4.60;91.30;;;;;;6128170;23;20018;-86
2021/03/08 04:47:30;;;;;;;9.85;2.80;;;4.70;91.40;;;;;;6126761;23;20386;-86
2021/03/08 04:49:56;;;;;;;10.73;2.92;;;4.60;91.30;;;;;;6128069;23;20022;-86
2021/03/08 04:52:22;;;;;;;9.52;2.92;;;4.60;91.30;;;;;;6126978;23;20014;-86
2021/03/08 04:54:48;;;;;;;9.57;2.75;;;4.60;91.30;;;;;;6127672;23;20089;-85
2021/03/08 04:57:21;;;;;;;7.47;2.50;;;4.60;91.30;;;;;;6127293;23;20471;-86
2021/03/08 04:59:48;;;;;;;11.63;2.70;;;4.60;91.40;;;;;;6127006;23;20018;-85
2021/03/08 05:02:17;;;;;;;7.55;2.88;;;4.60;91.40;;;;;;6126887;23;20345;-85
2021/03/08 05:04:46;;;;;;;7.50;2.67;;;4.60;91.30;;;;;;6127049;23;20014;-85
2021/03/08 05:07:17;;;;;;;9.57;2.50;;;4.60;91.40;;;;;;6126463;23;20022;-85
2021/03/08 05:09:43;;;;;;;6.93;2.42;;;4.60;91.30;;;;;;6127661;23;20391;-85
2021/03/08 05:12:11;;;;;;;10.10;2.65;;;4.60;91.30;;;;;;6127588;23;20026;-85
2021/03/08 05:14:38;;;;;;;8.23;2.30;;;4.60;91.40;;;;;;6126590;23;20017;-85
2021/03/08 05:17:06;;;;;;;8.48;2.60;;;4.60;91.40;;;;;;6128082;23;20033;-86
2021/03/08 05:19:34;;;;;;;7.63;2.47;;;4.60;91.40;;;;;;6127421;23;20018;-85
2021/03/08 05:22:01;;;;;;;9.57;2.60;;;4.60;91.40;;;;;;6126773;23;20014;-86
2021/03/08 05:24:28;;;;;;;8.18;2.80;;;4.50;91.40;;;;;;6127140;23;20453;-86
2021/03/08 05:26:54;;;;;;;8.15;2.30;;;4.60;91.70;;;;;;6127787;23;20096;-86
2021/03/08 05:29:23;;;;;;;9.80;3.03;;;4.60;91.40;;;;;;6126292;23;20374;-85
2021/03/08 05:31:51;;;;;;;8.68;2.72;;;4.60;91.40;;;;;;6132670;23;20021;-86
2021/03/08 05:34:18;;;;;;;7.88;2.47;;;4.60;91.40;;;;;;6156593;23;20136;-86
2021/03/08 05:36:47;;;;;;;8.13;2.53;;;4.50;91.40;;;;;;6156375;23;20338;-86
2021/03/08 05:39:15;;;;;;;7.50;2.53;;;4.60;91.80;;;;;;6156423;23;20072;-86
2021/03/08 05:42:06;;;;;;;6.93;2.50;;;4.50;91.40;;;;;;6155912;23;20018;-85
2021/03/08 05:44:33;;;;;;;8.07;2.70;;;4.60;91.50;;;;;;6156693;23;20025;-86
2021/03/08 05:47:02;;;;;;;7.35;2.67;;;4.50;91.40;;;;;;6157130;23;20018;-86
2021/03/08 05:49:49;;;;;;;8.93;2.75;;;4.50;91.40;;;;;;6155834;23;20017;-86
2021/03/08 05:52:36;;;;;;;8.80;2.70;;;4.50;91.40;;;;;;6156854;23;20032;-86
2021/03/08 05:55:39;;;;;;;8.85;2.65;;;4.50;91.30;;;;;;6156483;23;20096;-86
2021/03/08 05:58:48;;;;;;;8.50;2.45;;;4.50;91.40;;;;;;6156628;23;20024;-86
2021/03/08 06:01:52;;;;;;;8.88;2.72;;;4.50;91.40;;;;;;6156444;23;20028;-86
2021/03/08 06:04:39;;;;;;;10.73;2.45;;;4.50;91.40;;;;;;6155759;23;20028;-86
2021/03/08 06:07:31;;;;;;;9.45;2.63;;;4.50;91.40;;;;;;6156539;23;20545;-86
2021/03/08 06:10:20;;;;;;;8.32;2.80;;;4.50;91.40;;;;;;6155534;23;20014;-86
2021/03/08 06:12:49;;;;;;;8.27;2.35;;;4.50;91.40;;;;;;6156015;23;20017;-86
2021/03/08 06:15:20;;;;;;;8.30;2.80;;;4.50;91.40;;;;;;6156163;23;20349;-86
2021/03/08 06:17:48;;;;;;;9.77;2.80;;;4.50;91.50;;;;;;6187168;23;20170;-86
2021/03/08 06:20:31;;;;;;;8.48;2.47;;;4.50;91.50;;;;;;6215217;23;20353;-86
2021/03/08 06:22:57;;;;;;;9.35;2.50;;;4.50;91.50;;;;;;6216192;23;20062;-85
2021/03/08 06:25:23;;;;;;;8.30;2.47;;;4.50;91.50;;;;;;6214907;23;20376;-85
2021/03/08 06:27:52;;;;;;;10.43;2.78;;;4.50;91.80;;;;;;6216115;23;20044;-86
2021/03/08 06:30:19;;;;;;;8.63;2.45;;;4.50;91.50;;;;;;6210823;23;20099;-87
2021/03/08 06:32:45;;;;;;;8.75;2.40;;;4.50;91.50;;;;;;6213819;23;20481;-86
2021/03/08 06:35:14;;;;;;;8.70;2.45;;;4.50;91.50;;;;;;6212675;23;20096;-87
2021/03/08 06:37:47;;;;;;;7.45;2.42;;;4.50;91.40;;;;;;6210587;23;20024;-89
2021/03/08 06:40:24;;;;;;;8.27;2.50;;;4.50;91.40;;;;;;6212733;23;20017;-92
2021/03/08 06:42:55;;;;;;;9.52;2.60;;;4.50;91.40;;;;;;6217746;23;20017;-92
2021/03/08 06:45:55;;;;;;;9.35;2.55;;;4.40;91.40;;;;;;6214306;23;20024;-91
2021/03/08 06:52:14;;;;;;;8.30;2.40;;;4.40;91.40;;;;;;6216057;23;20437;-88
2021/03/08 06:55:00;;;;;;;8.48;2.42;;;4.40;91.40;;;;;;6216176;23;20086;-88
2021/03/08 06:57:43;;;;;;;10.48;2.72;;;4.40;91.50;;;;;;6213530;23;20020;-89
2021/03/08 07:03:53;;;;;;;8.00;2.60;;;4.40;91.50;;;;;;6215317;23;20021;-87
2021/03/08 07:06:29;;;;;;;7.18;2.47;;;4.40;91.50;;;;;;6213708;23;20020;-87
2021/03/08 07:09:10;;;;;;;7.95;2.30;;;4.40;91.50;;;;;;6215884;23;20069;-88
2021/03/08 07:11:40;;;;;;;7.60;2.30;;;4.40;91.40;;;;;;6216343;23;20100;-87
2021/03/08 07:14:42;;;;;;;11.52;2.53;;;4.40;91.40;;;;;;6214738;23;20102;-88
2021/03/08 07:17:42;;;;;;;9.68;3.00;;;4.50;91.40;;;;;;6213512;23;20090;-86
2021/03/08 07:21:10;;;;;;;;;;;;;;;;;;;;;
2021/03/08 07:24:52;;;;;;;9.73;2.40;;;4.40;91.40;;;;;;6112777;23;20029;-88
2021/03/08 07:28:49;;;;;;;9.80;2.90;;;4.40;91.40;;;;;;6135813;23;20124;-87
2021/03/08 07:32:12;;;;;;;8.38;2.58;;;4.40;91.30;;;;;;6044902;23;20042;-88
2021/03/08 07:34:56;;;;;;;8.10;2.20;;;4.40;91.40;;;;;;5973746;23;20146;-88
2021/03/08 07:37:21;;;;;;;;;;;4.50;91.30;;;;;;6074785;23;20022;-88
2021/03/08 07:39:53;;;;;;;11.90;2.40;;;4.40;91.00;;;;;;6199933;23;19922;-88
2021/03/08 07:42:18;;;;;;;9.63;2.38;;;4.50;91.40;;;;;;6215085;23;20016;-89
2021/03/08 07:44:49;;;;;;;9.23;2.60;;;4.50;91.40;;;;;;6213884;23;20400;-88
2021/03/08 07:47:18;;;;;;;6.35;2.05;;;4.50;91.50;;;;;;6215187;23;20028;-88
2021/03/08 07:49:46;;;;;;;7.93;2.42;;;4.50;91.50;;;;;;6215035;23;20483;-88
2021/03/08 07:52:14;;;;;;;7.47;2.40;;;4.50;91.50;;;;;;6214820;23;20071;-88
2021/03/08 07:55:00;;;;;;;10.18;2.53;;;4.60;91.50;;;;;;6215630;23;20465;-88
2021/03/08 07:57:28;;;;;;;8.00;2.45;;;4.60;91.50;;;;;;6214334;23;20074;-88
2021/03/08 07:59:54;;;;;;;10.32;2.65;;;4.60;91.50;;;;;;6215796;23;20012;-89
2021/03/08 08:02:21;;;;;;;11.25;2.92;;;4.60;91.50;;;;;;6214666;23;20354;-88
2021/03/08 08:04:46;;;;;;;15.63;3.42;;;4.60;91.50;;;;;;6214303;23;20380;-88
2021/03/08 08:07:22;;;;;;;11.30;2.85;;;4.70;91.50;;;;;;6214535;23;20023;-88
2021/03/08 08:09:48;;;;;;;9.63;2.83;;;4.70;91.50;;;;;;6215040;23;20032;-88
2021/03/08 08:12:22;;;;;;;12.40;3.47;;;4.70;91.50;;;;;;6211666;23;20025;-88
2021/03/08 08:14:51;;;;;;;8.52;2.58;;;4.70;91.50;;;;;;6208228;23;20445;-87
2021/03/08 08:27:37;;;;;;;10.40;2.83;;;4.80;91.30;;;;;;6093381;23;20032;-89
2021/03/08 08:30:09;;;;;;;11.27;3.20;;;4.80;91.30;;;;;;6150700;23;20388;-87
2021/03/08 08:33:07;;;;;;;11.50;3.30;;;4.90;91.30;;;;;;6149797;23;20557;-88
2021/03/08 08:36:15;;;;;;;12.40;3.60;;;4.90;91.20;;;;;;6093844;23;20022;-88
2021/03/08 08:39:00;;;;;;;27.02;7.57;;;4.90;91.60;;;;;;6092884;23;20018;-89
2021/03/08 08:41:32;;;;;;;27.60;5.22;;;4.90;91.20;;;;;;6093862;23;20038;-88
2021/03/08 08:44:35;;;;;;;18.35;4.75;;;5.00;91.10;;;;;;6093869;23;20699;-88
2021/03/08 08:47:46;;;;;;;14.48;4.10;;;5.00;91.00;;;;;;6093165;23;20098;-87
2021/03/08 08:50:50;;;;;;;11.48;3.47;;;5.00;91.00;;;;;;6093743;23;20014;-88
2021/03/08 08:54:02;;;;;;;20.85;4.75;;;5.00;91.10;;;;;;6147007;23;20105;-88
2021/03/08 08:56:48;;;;;;;14.35;4.03;;;5.10;90.90;;;;;;6089710;23;20207;-88
2021/03/08 08:59:21;;;;;;;15.20;3.70;;;5.10;90.80;;;;;;6211928;23;20023;-87
2021/03/08 09:01:47;;;;;;;17.23;3.67;;;5.20;90.90;;;;;;6211953;23;20139;-87
2021/03/08 09:07:00;;;;;;;17.45;4.70;;;5.20;90.60;;;;;;6202361;22;20035;-87
2021/03/08 09:10:07;;;;;;;22.92;4.80;;;5.20;90.60;;;;;;6212943;23;20016;-87
2021/03/08 09:20:39;;;;;;;14.88;4.07;;;5.30;90.60;;;;;;6213747;23;20020;-87
2021/03/08 09:23:23;;;;;;;14.52;3.83;;;5.40;90.30;;;;;;6214969;23;20021;-87
2021/03/08 09:25:56;;;;;;;18.52;4.28;;;5.40;90.30;;;;;;6213776;23;20344;-87
2021/03/08 09:29:08;;;;;;;10.90;3.92;;;5.40;90.20;;;;;;6212532;23;20020;-87
2021/03/08 09:36:07;;;;;;;17.25;3.53;;;5.50;90.10;;;;;;6182977;22;20293;-87
2021/03/08 09:40:15;;;;;;;11.50;3.40;;;5.50;89.70;;;;;;6098100;23;20077;-87
2021/03/08 09:42:48;;;;;;;14.02;3.70;;;5.50;90.00;;;;;;6154730;23;20025;-87
2021/03/08 09:45:35;;;;;;;;;;;;;;;;;;;;;
2021/03/08 09:48:07;;;;;;;16.58;3.67;;;5.60;90.00;;;;;;6154726;23;20096;-87
2021/03/08 09:50:37;;;;;;;13.70;4.03;;;5.60;90.00;;;;;;6156177;23;20014;-88
2021/03/08 09:53:06;;;;;;;10.75;3.47;;;5.60;90.00;;;;;;6157102;23;20446;-87
2021/03/08 09:55:48;;;;;;;17.70;3.90;;;5.60;90.00;;;;;;6155531;23;20096;-87
2021/03/08 09:58:44;;;;;;;13.45;3.88;;;5.60;89.90;;;;;;6152171;23;20018;-88
2021/03/08 10:01:25;;;;;;;17.30;4.18;;;5.70;89.80;;;;;;6156170;23;20446;-88
2021/03/08 10:03:50;;;;;;;13.27;3.25;;;5.70;89.70;;;;;;6155285;23;20018;-87
2021/03/08 10:06:24;;;;;;;11.27;3.58;;;5.80;89.90;;;;;;6155429;23;20347;-88
2021/03/08 10:08:54;;;;;;;14.50;3.72;;;5.80;89.90;;;;;;6155398;23;20048;-89
2021/03/08 10:11:44;;;;;;;14.32;3.65;;;5.80;90.00;;;;;;6158139;23;20338;-88
2021/03/08 10:14:32;;;;;;;15.85;3.92;;;5.80;89.80;;;;;;6156334;23;20469;-86
2021/03/08 10:17:46;;;;;;;14.95;4.25;;;5.90;89.90;;;;;;6154998;23;20096;-87
2021/03/08 10:20:33;;;;;;;;;;;;;;;;;;;;;
2021/03/08 10:23:44;;;;;;;16.27;3.72;;;5.90;89.30;;;;;;6135830;23;20021;-86
2021/03/08 10:26:47;;;;;;;20.73;3.97;;;5.90;88.80;;;;;;6186280;23;20068;-84
2021/03/08 10:36:50;;;;;;;15.23;3.58;;;5.90;89.40;;;;;;6184050;23;20469;-88
2021/03/08 10:39:24;;;;;;;12.13;3.67;;;5.90;88.50;;;;;;6185325;23;20311;-83
2021/03/08 10:41:52;;;;;;;12.85;3.70;;;6.00;89.60;;;;;;6185744;23;20442;-83
2021/03/08 10:44:19;;;;;;;16.17;3.90;;;6.00;88.60;;;;;;6183709;23;20025;-84
2021/03/08 10:46:45;;;;;;;13.73;3.85;;;6.00;88.30;;;;;;6186165;23;20028;-87
2021/03/08 10:53:56;;;;;;;17.38;3.35;;;6.10;88.20;;;;;;6214369;23;20051;-88
2021/03/08 10:57:34;;;;;;;14.27;3.58;;;6.10;87.60;;;;;;6091702;23;20029;-88
2021/03/08 11:01:05;;;;;;;15.10;3.92;;;6.10;87.70;;;;;;5976249;24;20035;-89
2021/03/08 11:07:51;;;;;;;13.73;3.70;;;6.10;87.30;;;;;;5967902;23;20155;-88
2021/03/08 11:10:52;;;;;;;12.02;3.00;;;6.10;87.70;;;;;;6246285;23;20501;-88
2021/03/08 11:14:10;;;;;;;15.05;3.80;;;6.20;87.40;;;;;;6245730;23;20074;-89
2021/03/08 11:17:05;;;;;;;15.38;3.67;;;6.20;87.80;;;;;;6246117;23;20024;-88
2021/03/08 11:19:33;;;;;;;13.15;3.35;;;6.30;88.10;;;;;;6245571;23;20017;-88
2021/03/08 11:22:14;;;;;;;14.07;3.58;;;6.30;87.60;;;;;;6246417;23;20023;-84
2021/03/08 11:24:45;;;;;;;21.02;3.70;;;6.30;87.30;;;;;;6246420;23;20020;-88
2021/03/08 11:27:24;;;;;;;14.40;3.47;;;6.40;87.20;;;;;;6244923;23;20047;-84
2021/03/08 11:30:21;;;;;;;11.10;3.45;;;6.40;86.80;;;;;;6245840;23;20030;-85
2021/03/08 11:32:57;;;;;;;14.90;3.60;;;6.50;88.00;;;;;;6246804;23;20087;-86
2021/03/08 11:35:52;;;;;;;12.25;3.33;;;6.50;87.40;;;;;;6243127;23;20027;-85
2021/03/08 11:38:31;;;;;;;15.02;3.45;;;6.50;87.40;;;;;;6246135;23;20018;-85
2021/03/08 11:41:45;;;;;;;11.90;3.53;;;6.60;87.10;;;;;;6245337;23;20027;-85
2021/03/08 11:44:46;;;;;;;16.25;3.63;;;6.60;86.50;;;;;;6238130;23;20035;-86
2021/03/08 11:47:12;;;;;;;11.00;3.30;;;6.70;86.30;;;;;;6188614;23;20021;-85
2021/03/08 11:56:25;;;;;;;11.60;3.17;;;6.80;86.40;;;;;;6214484;23;20020;-85
2021/03/08 11:59:22;;;;;;;12.65;3.60;;;6.90;86.20;;;;;;6215794;23;20020;-85
2021/03/08 12:02:08;;;;;;;14.82;3.20;;;6.90;85.30;;;;;;6214696;23;20019;-85
2021/03/08 12:04:41;;;;;;;15.25;3.40;;;6.90;85.40;;;;;;6214442;23;20019;-85
2021/03/08 12:07:06;;;;;;;12.30;3.28;;;7.00;85.50;;;;;;6215752;23;20027;-86
2021/03/08 12:09:34;;;;;;;14.18;3.80;;;7.00;85.20;;;;;;6214814;23;20040;-85
2021/03/08 12:12:00;;;;;;;10.55;3.13;;;7.10;85.30;;;;;;6215471;23;20020;-85
2021/03/08 12:14:26;;;;;;;12.27;3.38;;;7.10;85.60;;;;;;6215394;23;20084;-86
2021/03/08 12:16:52;;;;;;;13.82;3.47;;;7.20;85.50;;;;;;6213847;23;20020;-87
2021/03/08 12:19:33;;;;;;;17.85;3.90;;;7.20;85.10;;;;;;6214356;23;20020;-86
2021/03/08 12:22:13;;;;;;;14.75;3.00;;;7.30;84.10;;;;;;6214626;23;20016;-86
2021/03/08 12:24:39;;;;;;;10.07;2.88;;;7.30;84.20;;;;;;6214438;23;20024;-85
2021/03/08 12:27:42;;;;;;;12.57;3.25;;;7.30;84.70;;;;;;6215538;23;20017;-86
2021/03/08 12:33:55;;;;;;;11.55;3.20;;;7.40;85.00;;;;;;6120852;23;20033;-87
2021/03/08 12:42:50;;;;;;;11.68;2.80;;;7.40;83.50;;;;;;6063940;23;20337;-87
2021/03/08 12:45:16;;;;;;;10.45;3.00;;;7.50;84.10;;;;;;6063052;23;20112;-88
2021/03/08 12:47:42;;;;;;;11.45;2.95;;;7.50;83.80;;;;;;6113787;23;20062;-87
2021/03/08 12:50:25;;;;;;;13.38;3.50;;;7.60;83.40;;;;;;6123198;23;20018;-89
2021/03/08 12:52:51;;;;;;;12.23;3.40;;;7.60;82.90;;;;;;6122514;23;20320;-88
2021/03/08 12:55:22;;;;;;;10.75;3.00;;;7.60;83.50;;;;;;6122773;23;20018;-87
2021/03/08 12:57:48;;;;;;;11.30;3.05;;;7.60;83.60;;;;;;6119152;23;20025;-89
2021/03/08 13:00:17;;;;;;;14.50;3.45;;;7.60;83.60;;;;;;6120156;23;20505;-88
2021/03/08 13:02:49;;;;;;;14.93;3.42;;;7.70;83.10;;;;;;6119291;23;20026;-89
2021/03/08 13:08:47;;;;;;;13.05;3.42;;;7.70;83.00;;;;;;6125251;23;20018;-90
2021/03/08 13:11:13;;;;;;;12.43;3.22;;;7.70;82.60;;;;;;6194973;23;20492;-90
2021/03/08 13:13:45;;;;;;;9.70;2.90;;;7.70;82.40;;;;;;6211207;23;20388;-90
2021/03/08 13:16:43;;;;;;;17.50;3.58;;;7.70;82.20;;;;;;6217063;23;20337;-89
2021/03/08 13:22:41;;;;;;;14.75;3.45;;;7.80;82.60;;;;;;6204013;23;20017;-88
2021/03/08 13:25:14;;;;;;;12.05;3.40;;;7.80;83.20;;;;;;6216688;23;20311;-88
2021/03/08 13:27:43;;;;;;;12.82;3.40;;;7.80;83.30;;;;;;6215744;23;20017;-88
2021/03/08 13:30:15;;;;;;;12.50;4.18;;;7.80;82.70;;;;;;6217319;23;20013;-89
2021/03/08 13:38:44;;;;;;;14.20;3.50;;;7.80;83.20;;;;;;6215660;23;20038;-90
2021/03/08 13:41:46;;;;;;;12.30;3.40;;;7.70;82.10;;;;;;6214419;23;20143;-89
2021/03/08 13:44:12;;;;;;;11.63;3.92;;;7.70;83.20;;;;;;6216325;23;20020;-89
2021/03/08 13:46:51;;;;;;;12.93;3.78;;;7.70;83.30;;;;;;6217201;23;20017;-89
2021/03/08 13:53:52;;;;;;;12.27;3.70;;;7.80;85.00;;;;;;6205289;22;20027;-90
2021/03/08 13:56:46;;;;;;;10.27;3.60;;;7.80;84.70;;;;;;6216091;23;20017;-90
2021/03/08 13:59:45;;;;;;;9.75;3.22;;;7.80;85.70;;;;;;6213837;23;20034;-90
2021/03/08 14:06:21;;;;;;;9.65;3.40;;;7.80;85.30;;;;;;6216405;23;20078;-88
2021/03/08 14:36:46;;;;;;;13.85;4.30;;;7.90;87.50;;;;;;6216176;22;20055;-91
2021/03/08 14:39:49;;;;;;;9.65;3.95;;;7.90;88.20;;;;;;6246926;23;20020;-92
2021/03/08 14:46:39;;;;;;;12.85;3.40;;;7.90;88.90;;;;;;6253929;23;20031;-91
2021/03/08 15:03:54;;;;;;;9.85;3.35;;;7.80;88.60;;;;;;6179651;23;20017;-85
2021/03/08 15:06:33;;;;;;;15.73;4.30;;;7.80;89.00;;;;;;6153846;23;20017;-87
2021/03/08 15:09:11;;;;;;;8.60;3.80;;;7.80;89.00;;;;;;6182945;23;20021;-88
2021/03/08 15:12:36;;;;;;;8.65;3.60;;;7.80;89.50;;;;;;6183138;23;20064;-90
2021/03/08 15:18:46;;;;;;;13.40;3.85;;;7.80;89.80;;;;;;6228947;22;20027;-91
2021/03/08 15:22:00;;;;;;;9.88;3.72;;;7.80;89.80;;;;;;6247203;23;20460;-92
2021/03/08 15:29:16;;;;;;;9.88;3.92;;;7.90;89.80;;;;;;6095416;23;20049;-92
2021/03/08 15:31:51;;;;;;;7.93;3.60;;;7.80;89.50;;;;;;6009653;23;20118;-93
2021/03/08 15:41:34;;;;;;;10.93;4.30;;;7.90;90.60;;;;;;6090447;23;20049;-89
2021/03/08 15:44:29;;;;;;;10.60;4.13;;;7.90;90.00;;;;;;6095228;23;20069;-95
2021/03/08 15:47:05;;;;;;;9.48;4.13;;;7.90;90.00;;;;;;6091708;23;20014;-93
2021/03/08 15:49:31;;;;;;;10.55;4.15;;;7.90;90.10;;;;;;6094062;23;20022;-86
2021/03/08 15:51:57;;;;;;;12.25;4.60;;;7.90;90.10;;;;;;6095336;23;20014;-87
2021/03/08 15:54:49;;;;;;;11.52;4.93;;;7.90;90.00;;;;;;6094517;23;20023;-86
2021/03/08 15:57:28;;;;;;;10.65;4.43;;;7.90;89.30;;;;;;6101411;23;20015;-84
2021/03/08 15:59:54;;;;;;;10.88;4.07;;;7.80;88.40;;;;;;6245927;23;20016;-87
2021/03/08 16:02:23;;;;;;;10.00;4.30;;;7.80;88.80;;;;;;6241697;23;20437;-86
2021/03/08 16:04:51;;;;;;;10.45;4.57;;;7.70;89.10;;;;;;6244872;23;20058;-91
2021/03/08 16:07:36;;;;;;;8.55;4.57;;;7.70;89.60;;;;;;6244705;23;20026;-92
2021/03/08 16:10:43;;;;;;;11.20;4.97;;;7.80;90.00;;;;;;6245791;23;20012;-94
2021/03/08 16:13:15;;;;;;;9.85;4.80;;;7.70;90.20;;;;;;6245276;23;20437;-89
2021/03/08 16:16:15;;;;;;;9.57;4.45;;;7.70;90.30;;;;;;6230243;23;20054;-90
2021/03/08 16:22:30;;;;;;;11.10;4.57;;;7.80;90.40;;;;;;6245089;23;20016;-90
2021/03/08 16:24:56;;;;;;;9.75;4.30;;;7.80;90.30;;;;;;6246665;23;20027;-90
2021/03/08 16:27:41;;;;;;;11.48;4.45;;;7.80;90.20;;;;;;6246388;23;20016;-90
2021/03/08 16:30:29;;;;;;;9.80;4.85;;;7.80;90.40;;;;;;6245857;23;20051;-92
2021/03/08 16:32:55;;;;;;;8.77;4.60;;;7.80;90.50;;;;;;6246847;23;20020;-91
2021/03/08 16:36:25;;;;;;;9.63;4.35;;;7.80;90.50;;;;;;6246461;23;20016;-89
2021/03/08 16:43:46;;;;;;;9.55;4.85;;;7.70;90.30;;;;;;6123397;23;20065;-88
2021/03/08 16:46:46;;;;;;;9.05;4.65;;;7.70;90.30;;;;;;6075261;23;20029;-91
2021/03/08 16:49:15;;;;;;;11.45;5.38;;;7.70;90.50;;;;;;6121350;23;20018;-89
2021/03/08 16:51:49;;;;;;;12.07;5.25;;;7.70;90.30;;;;;;6121566;23;20021;-92
2021/03/08 16:54:46;;;;;;;11.82;5.32;;;7.70;90.00;;;;;;6123610;23;20034;-89
2021/03/08 16:57:14;;;;;;;8.77;4.65;;;7.70;90.10;;;;;;6122399;23;20027;-90
2021/03/08 16:59:40;;;;;;;12.05;5.47;;;7.60;90.30;;;;;;6123663;23;20525;-91
2021/03/08 17:02:06;;;;;;;9.05;5.18;;;7.60;90.40;;;;;;6124297;23;20025;-93
2021/03/08 17:04:41;;;;;;;14.27;6.40;;;7.60;90.90;;;;;;6187808;23;20009;-91
2021/03/08 17:10:45;;;;;;;11.35;5.90;;;7.60;90.60;;;;;;6209043;22;20027;-92